createdAt,value
2019-01-05T00:00:56.936Z,59.94
2019-01-05T00:02:02.158Z,59.94
2019-01-05T00:03:23.613Z,59.98
2019-01-05T00:04:34.233Z,59.97
2019-01-05T00:05:42.188Z,59.99
2019-01-05T00:06:49.827Z,60.06
2019-01-05T00:07:57.926Z,60.12
2019-01-05T00:09:11.613Z,60.21
2019-01-05T00:10:19.882Z,60.24
2019-01-05T00:11:40.687Z,60.27
2019-01-05T00:12:45.853Z,60.35
2019-01-05T00:14:07.389Z,60.33
2019-01-05T00:15:30.772Z,60.38
2019-01-05T00:16:51.098Z,60.47
2019-01-05T00:18:11.353Z,60.45
2019-01-05T00:19:22.490Z,60.48
2019-01-05T00:20:31.009Z,60.52
2019-01-05T00:21:37.571Z,60.57
2019-01-05T00:22:52.219Z,60.60
2019-01-05T00:24:00.101Z,60.65
2019-01-05T00:25:17.620Z,60.71
2019-01-05T00:26:40.604Z,60.74
2019-01-05T00:28:04.528Z,60.77
2019-01-05T00:29:10.592Z,60.84
2019-01-05T00:30:27.661Z,61.25
2019-01-05T00:31:41.625Z,61.24
2019-01-05T00:33:06.954Z,61.35
2019-01-05T00:34:30.657Z,61.46
2019-01-05T00:35:41.385Z,61.45
2019-01-05T00:36:54.005Z,61.56
2019-01-05T00:38:10.837Z,61.56
2019-01-05T00:39:19.075Z,61.56
2019-01-05T00:40:30.541Z,61.57
2019-01-05T00:41:45.826Z,61.63
2019-01-05T00:43:00.165Z,61.71
2019-01-05T00:44:21.758Z,61.71
2019-01-05T00:45:31.702Z,61.63
2019-01-05T00:46:53.170Z,61.73
2019-01-05T00:48:02.628Z,61.82
2019-01-05T00:49:21.698Z,61.83
2019-01-05T00:50:39.431Z,61.89
2019-01-05T00:51:55.546Z,61.88
2019-01-05T00:53:01.858Z,61.88
2019-01-05T00:54:10.002Z,61.93
2019-01-05T00:55:21.326Z,62.03
2019-01-05T00:56:36.909Z,62.15
2019-01-05T00:57:49.389Z,62.25
2019-01-05T00:59:13.541Z,62.45
2019-01-05T01:00:24.688Z,62.52
2019-01-05T01:01:46.165Z,62.46
2019-01-05T01:03:07.646Z,62.42
2019-01-05T01:04:28.991Z,62.37
2019-01-05T01:05:45.888Z,62.41
2019-01-05T01:07:07.126Z,62.53
2019-01-05T01:08:24.509Z,62.57
2019-01-05T01:09:29.925Z,62.57
2019-01-05T01:10:53.305Z,62.62
2019-01-05T01:12:14.689Z,62.82
2019-01-05T01:13:29.179Z,62.91
2019-01-05T01:14:43.466Z,62.99
2019-01-05T01:15:49.075Z,63.10
2019-01-05T01:16:54.470Z,63.14
2019-01-05T01:18:00.046Z,63.10
2019-01-05T01:19:08.458Z,63.08
2019-01-05T01:20:25.830Z,63.09
2019-01-05T01:21:47.266Z,63.10
2019-01-05T01:22:52.939Z,63.21
2019-01-05T01:24:07.692Z,63.46
2019-01-05T01:25:21.940Z,63.62
2019-01-05T01:26:33.902Z,63.79
2019-01-05T01:27:51.977Z,63.72
2019-01-05T01:29:13.898Z,63.59
2019-01-05T01:30:25.060Z,63.48
2019-01-05T01:31:36.357Z,63.79
2019-01-05T01:32:42.019Z,64.16
2019-01-05T01:33:53.496Z,64.15
2019-01-05T01:34:58.859Z,64.16
2019-01-05T01:36:19.121Z,64.42
2019-01-05T01:37:33.083Z,64.37
2019-01-05T01:38:43.870Z,64.23
2019-01-05T01:39:52.512Z,64.09
2019-01-05T01:41:10.181Z,64.08
2019-01-05T01:42:15.787Z,64.26
2019-01-05T01:43:21.144Z,64.16
2019-01-05T01:44:41.667Z,64.00
2019-01-05T01:45:48.950Z,63.77
2019-01-05T01:47:11.637Z,63.64
2019-01-05T01:48:25.739Z,63.63
2019-01-05T01:49:32.444Z,63.73
2019-01-05T01:50:40.945Z,63.80
2019-01-05T01:52:01.819Z,63.67
2019-01-05T01:53:21.915Z,63.46
2019-01-05T01:54:30.251Z,63.37
2019-01-05T01:55:54.091Z,63.29
2019-01-05T01:57:02.285Z,63.46
2019-01-05T01:58:10.971Z,63.61
2019-01-05T01:59:31.219Z,63.55
2019-01-05T02:00:39.753Z,63.70
2019-01-05T02:01:52.437Z,63.96
2019-01-05T02:03:15.056Z,64.21
2019-01-05T02:04:36.876Z,64.48
2019-01-05T02:06:01.045Z,64.50
2019-01-05T02:07:25.106Z,64.30
2019-01-05T02:08:38.586Z,64.26
2019-01-05T02:10:04.986Z,64.53
2019-01-05T02:11:21.703Z,64.74
2019-01-05T02:12:40.725Z,64.78
2019-01-05T02:13:54.819Z,64.79
2019-01-05T02:15:13.563Z,64.83
2019-01-05T02:16:37.451Z,64.89
2019-01-05T02:17:51.790Z,64.84
2019-01-05T02:19:00.054Z,64.75
2019-01-05T02:20:34.881Z,64.69
2019-01-05T02:22:14.347Z,64.84
2019-01-05T02:23:53.803Z,64.83
2019-01-05T02:25:28.494Z,64.50
2019-01-05T02:26:45.117Z,64.47
2019-01-05T02:28:14.744Z,64.50
2019-01-05T02:29:40.711Z,64.63
2019-01-05T02:31:19.555Z,64.74
2019-01-05T02:32:36.506Z,64.58
2019-01-05T02:33:56.200Z,64.39
2019-01-05T02:35:23.843Z,64.21
2019-01-05T02:36:50.918Z,64.53
2019-01-05T02:38:08.028Z,64.75
2019-01-05T02:39:34.212Z,64.69
2019-01-05T02:41:06.044Z,64.61
2019-01-05T02:42:28.526Z,64.59
2019-01-05T02:43:57.610Z,64.47
2019-01-05T02:45:34.021Z,64.46
2019-01-05T02:47:13.406Z,64.45
2019-01-05T02:48:45.329Z,64.49
2019-01-05T02:50:21.925Z,64.42
2019-01-05T02:51:41.727Z,64.40
2019-01-05T02:53:13.662Z,64.38
2019-01-05T02:54:33.402Z,64.38
2019-01-05T02:56:21.414Z,64.33
2019-01-05T02:57:57.966Z,64.15
2019-01-05T02:59:31.738Z,63.99
2019-01-05T03:01:03.654Z,64.05
2019-01-05T03:02:51.994Z,64.03
2019-01-05T03:04:14.673Z,64.13
2019-01-05T03:05:46.630Z,64.30
2019-01-05T03:07:15.645Z,64.22
2019-01-05T03:08:41.644Z,64.21
2019-01-05T03:10:16.994Z,64.36
2019-01-05T03:12:07.206Z,64.45
2019-01-05T03:13:23.988Z,64.38
2019-01-05T03:14:43.705Z,64.33
2019-01-05T03:16:27.420Z,64.43
2019-01-05T03:17:56.096Z,64.58
2019-01-05T03:19:19.093Z,64.68
2019-01-05T03:20:35.743Z,64.72
2019-01-05T03:21:49.157Z,64.74
2019-01-05T03:23:18.195Z,64.76
2019-01-05T03:24:56.313Z,64.82
2019-01-05T03:26:18.775Z,64.75
2019-01-05T03:27:41.392Z,64.71
2019-01-05T03:29:10.571Z,64.75
2019-01-05T03:30:42.368Z,64.83
2019-01-05T03:32:18.594Z,64.79
2019-01-05T03:33:52.096Z,64.74
2019-01-05T03:35:14.688Z,64.84
2019-01-05T03:36:40.445Z,64.84
2019-01-05T03:38:25.653Z,64.81
2019-01-05T03:40:08.226Z,64.81
2019-01-05T03:41:35.419Z,64.94
2019-01-05T03:43:16.317Z,64.90
2019-01-05T03:44:46.780Z,64.98
2019-01-05T03:46:12.333Z,65.04
2019-01-05T03:47:38.250Z,65.10
2019-01-05T03:49:11.108Z,65.21
2019-01-05T03:50:43.169Z,65.15
2019-01-05T03:51:57.195Z,64.96
2019-01-05T03:53:28.889Z,64.58
2019-01-05T03:54:45.857Z,64.23
2019-01-05T03:56:29.687Z,64.01
2019-01-05T03:58:00.080Z,63.90
2019-01-05T03:59:08.285Z,63.74
2019-01-05T04:00:31.466Z,63.61
2019-01-05T04:02:12.651Z,63.49
2019-01-05T04:04:05.079Z,63.38
2019-01-05T04:05:32.510Z,63.38
2019-01-05T04:07:11.546Z,63.22
2019-01-05T04:08:28.561Z,62.90
2019-01-05T04:10:18.348Z,62.67
2019-01-05T04:11:54.599Z,62.37
2019-01-05T04:13:16.839Z,61.97
2019-01-05T04:14:25.009Z,61.60
2019-01-05T04:16:05.593Z,61.28
2019-01-05T04:17:31.644Z,60.99
2019-01-05T04:19:12.312Z,60.72
2019-01-05T04:20:57.370Z,60.35
2019-01-05T04:22:23.413Z,60.18
2019-01-05T04:24:04.355Z,59.91
2019-01-05T04:25:34.387Z,59.90
2019-01-05T04:26:54.207Z,59.79
2019-01-05T04:28:24.506Z,59.79
2019-01-05T04:29:38.663Z,59.76
2019-01-05T04:31:06.377Z,59.64
2019-01-05T04:32:58.002Z,59.61
2019-01-05T04:34:29.891Z,59.63
2019-01-05T04:36:14.252Z,59.37
2019-01-05T04:37:38.364Z,59.26
2019-01-05T04:39:23.867Z,59.20
2019-01-05T04:40:52.329Z,59.28
2019-01-05T04:42:15.005Z,59.15
2019-01-05T04:43:48.053Z,59.27
2019-01-05T04:45:35.178Z,59.17
2019-01-05T04:47:13.602Z,59.79
2019-01-05T04:49:06.443Z,59.54
2019-01-05T04:50:26.125Z,59.38
2019-01-05T04:52:19.222Z,59.37
2019-01-05T04:53:57.451Z,59.41
2019-01-05T04:55:23.171Z,59.33
2019-01-05T04:57:17.800Z,59.21
2019-01-05T04:58:41.599Z,59.25
2019-01-05T05:00:11.407Z,59.42
2019-01-05T05:01:59.577Z,59.45
2019-01-05T05:03:13.382Z,59.47
2019-01-05T05:04:56.127Z,59.44
2019-01-05T05:06:21.746Z,59.41
2019-01-05T05:07:46.250Z,59.30
2019-01-05T05:09:18.184Z,59.29
2019-01-05T05:10:41.110Z,59.40
2019-01-05T05:12:13.213Z,59.50
2019-01-05T05:13:37.741Z,59.44
2019-01-05T05:15:23.123Z,59.60
2019-01-05T05:16:45.896Z,59.70
2019-01-05T05:18:15.061Z,59.78
2019-01-05T05:19:42.398Z,59.95
2019-01-05T05:21:18.248Z,60.03
2019-01-05T05:23:09.849Z,60.16
2019-01-05T05:24:40.435Z,60.22
2019-01-05T05:25:54.536Z,60.54
2019-01-05T05:27:22.089Z,60.42
2019-01-05T05:29:13.808Z,60.56
2019-01-05T05:31:10.838Z,60.65
2019-01-05T05:32:37.098Z,60.82
2019-01-05T05:34:10.489Z,61.17
2019-01-05T05:35:45.413Z,61.22
2019-01-05T05:37:21.659Z,61.29
2019-01-05T05:39:08.823Z,61.24
2019-01-05T05:40:48.123Z,61.11
2019-01-05T05:42:22.574Z,61.01
2019-01-05T05:44:11.413Z,60.82
2019-01-05T05:45:48.832Z,60.48
2019-01-05T05:47:05.644Z,60.27
2019-01-05T05:48:33.093Z,60.17
2019-01-05T05:50:11.053Z,59.93
2019-01-05T05:51:51.380Z,59.89
2019-01-05T05:53:41.104Z,60.18
2019-01-05T05:55:29.849Z,59.99
2019-01-05T05:57:14.766Z,59.80
2019-01-05T05:58:49.621Z,59.87
2019-01-05T06:00:30.108Z,59.88
2019-01-05T06:02:19.957Z,59.90
2019-01-05T06:03:50.256Z,60.18
2019-01-05T06:05:41.633Z,60.04
2019-01-05T06:07:33.333Z,60.04
2019-01-05T06:09:12.322Z,60.18
2019-01-05T06:10:51.437Z,60.14
2019-01-05T06:12:04.851Z,60.12
2019-01-05T06:13:21.502Z,60.03
2019-01-05T06:14:55.697Z,59.99
2019-01-05T06:16:24.249Z,59.98
2019-01-05T06:17:37.870Z,59.95
2019-01-05T06:19:17.533Z,59.93
2019-01-05T06:20:49.062Z,59.96
2019-01-05T06:22:29.381Z,60.01
2019-01-05T06:24:11.549Z,60.07
2019-01-05T06:26:10.597Z,60.12
2019-01-05T06:27:51.403Z,60.12
2019-01-05T06:29:27.695Z,60.10
2019-01-05T06:31:13.956Z,60.01
2019-01-05T06:33:06.516Z,59.94
2019-01-05T06:34:32.850Z,59.91
2019-01-05T06:36:13.732Z,59.95
2019-01-05T06:37:39.424Z,59.91
2019-01-05T06:39:26.126Z,59.99
2019-01-05T06:40:40.027Z,60.07
2019-01-05T06:42:06.164Z,60.09
2019-01-05T06:43:28.836Z,60.22
2019-01-05T06:44:54.479Z,60.13
2019-01-05T06:46:17.177Z,60.21
2019-01-05T06:47:56.420Z,60.28
2019-01-05T06:49:28.209Z,60.22
2019-01-05T06:51:17.856Z,60.23
2019-01-05T06:52:51.018Z,60.19
2019-01-05T06:54:04.829Z,60.18
2019-01-05T06:55:18.986Z,60.31
2019-01-05T06:56:53.882Z,60.22
2019-01-05T06:58:51.029Z,60.25
2019-01-05T07:00:34.806Z,60.34
2019-01-05T07:02:06.682Z,60.49
2019-01-05T07:03:30.919Z,60.48
2019-01-05T07:04:56.558Z,60.39
2019-01-05T07:06:38.558Z,60.39
2019-01-05T07:08:06.848Z,60.30
2019-01-05T07:09:47.855Z,60.19
2019-01-05T07:11:28.264Z,60.15
2019-01-05T07:13:08.716Z,60.18
2019-01-05T07:14:49.232Z,60.21
2019-01-05T07:16:30.039Z,60.28
2019-01-05T07:18:10.667Z,60.28
2019-01-05T07:19:36.668Z,60.52
2019-01-05T07:21:15.643Z,60.66
2019-01-05T07:22:32.745Z,60.52
2019-01-05T07:24:09.074Z,60.50
2019-01-05T07:25:45.561Z,60.43
2019-01-05T07:27:22.022Z,60.34
2019-01-05T07:29:05.513Z,60.22
2019-01-05T07:30:30.837Z,60.20
2019-01-05T07:32:04.265Z,60.01
2019-01-05T07:33:52.556Z,60.13
2019-01-05T07:35:17.718Z,60.12
2019-01-05T07:36:57.484Z,60.18
2019-01-05T07:38:27.739Z,60.63
2019-01-05T07:40:16.039Z,60.26
2019-01-05T07:42:05.845Z,60.71
2019-01-05T07:43:49.795Z,60.26
2019-01-05T07:45:29.181Z,60.18
2019-01-05T07:46:40.132Z,60.08
2019-01-05T07:48:37.593Z,60.00
2019-01-05T07:50:12.357Z,58.99
2019-01-05T07:51:59.429Z,58.79
2019-01-05T07:53:25.536Z,58.05
2019-01-05T07:54:58.729Z,57.36
2019-01-05T07:56:25.786Z,56.40
2019-01-05T07:57:36.844Z,56.01
2019-01-05T07:58:56.809Z,56.30
2019-01-05T08:00:24.047Z,56.50
2019-01-05T08:01:44.232Z,56.67
2019-01-05T08:03:14.627Z,56.88
2019-01-05T08:04:37.915Z,57.05
2019-01-05T08:05:48.798Z,57.05
2019-01-05T08:07:41.654Z,57.16
2019-01-05T08:09:10.898Z,57.26
2019-01-05T08:10:59.302Z,57.32
2019-01-05T08:12:56.796Z,57.44
2019-01-05T08:14:48.156Z,57.47
2019-01-05T08:16:33.480Z,57.80
2019-01-05T08:17:58.414Z,57.85
2019-01-05T08:19:24.558Z,57.94
2019-01-05T08:21:01.318Z,57.94
2019-01-05T08:22:38.955Z,57.99
2019-01-05T08:24:29.071Z,57.99
2019-01-05T08:25:57.962Z,58.07
2019-01-05T08:27:37.228Z,58.19
2019-01-05T08:29:16.441Z,57.82
2019-01-05T08:30:52.844Z,57.23
2019-01-05T08:32:49.929Z,56.59
2019-01-05T08:34:07.117Z,56.48
2019-01-05T08:35:30.091Z,56.33
2019-01-05T08:37:18.742Z,56.57
2019-01-05T08:39:01.372Z,55.95
2019-01-05T08:40:37.484Z,54.47
2019-01-05T08:42:06.680Z,53.03
2019-01-05T08:44:06.171Z,52.09
2019-01-05T08:45:49.033Z,53.20
2019-01-05T08:47:08.637Z,53.51
2019-01-05T08:48:22.821Z,53.76
2019-01-05T08:50:05.639Z,53.48
2019-01-05T08:51:53.618Z,53.58
2019-01-05T08:53:29.866Z,53.94
2019-01-05T08:54:52.513Z,53.27
2019-01-05T08:56:24.657Z,53.58
2019-01-05T08:57:50.353Z,53.61
2019-01-05T08:59:01.472Z,53.76
2019-01-05T09:00:32.109Z,53.88
2019-01-05T09:02:14.462Z,53.90
2019-01-05T09:03:55.296Z,53.98
2019-01-05T09:05:33.372Z,53.72
2019-01-05T09:07:06.553Z,54.10
2019-01-05T09:08:51.835Z,52.97
2019-01-05T09:10:11.881Z,53.17
2019-01-05T09:11:34.905Z,53.00
2019-01-05T09:13:03.391Z,52.74
2019-01-05T09:14:28.060Z,51.50
2019-01-05T09:15:52.615Z,52.12
2019-01-05T09:17:25.925Z,52.44
2019-01-05T09:19:19.142Z,52.40
2019-01-05T09:20:47.856Z,52.49
2019-01-05T09:22:41.898Z,52.68
2019-01-05T09:24:10.780Z,52.47
2019-01-05T09:25:52.065Z,52.11
2019-01-05T09:27:35.692Z,52.19
2019-01-05T09:29:02.716Z,52.51
2019-01-05T09:30:30.247Z,52.45
2019-01-05T09:32:03.813Z,52.58
2019-01-05T09:33:26.900Z,52.76
2019-01-05T09:35:19.390Z,52.45
2019-01-05T09:36:56.119Z,52.36
2019-01-05T09:38:38.346Z,52.61
2019-01-05T09:40:23.996Z,52.56
2019-01-05T09:42:22.843Z,52.13
2019-01-05T09:43:39.528Z,52.09
2019-01-05T09:45:05.658Z,52.18
2019-01-05T09:46:22.546Z,52.17
2019-01-05T09:47:41.781Z,52.15
2019-01-05T09:49:01.499Z,52.20
2019-01-05T09:50:51.613Z,52.18
2019-01-05T09:52:26.536Z,52.18
2019-01-05T09:54:02.578Z,52.19
2019-01-05T09:55:59.623Z,52.25
2019-01-05T09:57:40.692Z,52.32
2019-01-05T09:59:21.517Z,52.31
2019-01-05T10:00:59.491Z,51.97
2019-01-05T10:02:27.981Z,52.10
2019-01-05T10:03:54.653Z,52.25
2019-01-05T10:05:30.945Z,52.35
2019-01-05T10:07:09.354Z,52.36
2019-01-05T10:08:35.286Z,52.51
2019-01-05T10:10:08.240Z,52.82
2019-01-05T10:11:32.420Z,52.96
2019-01-05T10:13:04.603Z,52.59
2019-01-05T10:14:33.750Z,52.79
2019-01-05T10:16:26.578Z,53.00
2019-01-05T10:18:01.983Z,52.94
2019-01-05T10:20:01.194Z,52.85
2019-01-05T10:21:40.726Z,52.98
2019-01-05T10:23:39.556Z,53.04
2019-01-05T10:25:20.455Z,53.15
2019-01-05T10:26:56.841Z,53.18
2019-01-05T10:28:28.789Z,53.47
2019-01-05T10:30:14.169Z,53.72
2019-01-05T10:32:00.951Z,53.83
2019-01-05T10:33:35.625Z,54.08
2019-01-05T10:35:01.236Z,54.11
2019-01-05T10:36:28.641Z,54.47
2019-01-05T10:37:57.652Z,54.63
2019-01-05T10:39:23.238Z,54.29
2019-01-05T10:41:04.707Z,54.14
2019-01-05T10:42:30.759Z,53.91
2019-01-05T10:43:47.937Z,54.32
2019-01-05T10:45:14.084Z,53.85
2019-01-05T10:46:58.070Z,53.55
2019-01-05T10:48:34.222Z,53.29
2019-01-05T10:50:04.060Z,53.04
2019-01-05T10:51:20.908Z,52.91
2019-01-05T10:52:51.342Z,52.60
2019-01-05T10:54:22.935Z,52.41
2019-01-05T10:55:51.570Z,52.13
2019-01-05T10:57:33.954Z,51.94
2019-01-05T10:59:04.355Z,51.61
2019-01-05T11:00:23.839Z,51.16
2019-01-05T11:02:10.767Z,51.03
2019-01-05T11:03:50.326Z,50.89
2019-01-05T11:05:23.999Z,51.07
2019-01-05T11:06:43.816Z,50.99
2019-01-05T11:08:25.951Z,51.05
2019-01-05T11:09:55.028Z,50.96
2019-01-05T11:11:35.607Z,51.02
2019-01-05T11:13:07.350Z,51.00
2019-01-05T11:14:41.932Z,51.15
2019-01-05T11:16:13.737Z,51.25
2019-01-05T11:17:49.911Z,51.28
2019-01-05T11:19:18.737Z,51.61
2019-01-05T11:20:49.680Z,51.59
2019-01-05T11:22:31.526Z,51.67
2019-01-05T11:24:08.046Z,51.83
2019-01-05T11:25:39.956Z,52.02
2019-01-05T11:27:18.047Z,52.24
2019-01-05T11:28:26.232Z,52.38
2019-01-05T11:30:05.113Z,52.54
2019-01-05T11:31:32.312Z,52.62
2019-01-05T11:33:02.374Z,52.76
2019-01-05T11:34:22.128Z,52.88
2019-01-05T11:35:58.889Z,52.97
2019-01-05T11:37:26.247Z,53.08
2019-01-05T11:38:40.206Z,53.19
2019-01-05T11:40:19.325Z,53.28
2019-01-05T11:41:54.195Z,53.40
2019-01-05T11:43:32.135Z,53.51
2019-01-05T11:44:51.818Z,53.63
2019-01-05T11:46:14.817Z,53.92
2019-01-05T11:47:37.978Z,54.05
2019-01-05T11:49:09.995Z,54.21
2019-01-05T11:50:49.577Z,54.33
2019-01-05T11:52:19.761Z,54.57
2019-01-05T11:53:33.782Z,54.74
2019-01-05T11:54:47.787Z,54.92
2019-01-05T11:56:10.523Z,55.16
2019-01-05T11:58:00.890Z,55.21
2019-01-05T11:59:32.993Z,55.34
2019-01-05T12:00:49.977Z,55.43
2019-01-05T12:02:20.403Z,55.51
2019-01-05T12:04:00.009Z,55.35
2019-01-05T12:05:32.038Z,55.35
2019-01-05T12:07:27.985Z,54.70
2019-01-05T12:09:07.913Z,54.54
2019-01-05T12:10:40.163Z,54.33
2019-01-05T12:12:15.630Z,54.23
2019-01-05T12:13:44.545Z,54.17
2019-01-05T12:15:21.000Z,54.09
2019-01-05T12:16:40.996Z,53.85
2019-01-05T12:18:00.901Z,53.90
2019-01-05T12:19:47.708Z,53.82
2019-01-05T12:21:21.292Z,53.50
2019-01-05T12:22:59.014Z,53.68
2019-01-05T12:24:37.161Z,53.47
2019-01-05T12:26:01.513Z,53.12
2019-01-05T12:27:22.785Z,52.99
2019-01-05T12:28:45.669Z,52.87
2019-01-05T12:30:21.526Z,52.82
2019-01-05T12:32:02.568Z,52.66
2019-01-05T12:33:37.305Z,52.62
2019-01-05T12:35:13.913Z,52.59
2019-01-05T12:36:51.711Z,52.29
2019-01-05T12:38:25.134Z,52.28
2019-01-05T12:40:09.055Z,52.33
2019-01-05T12:41:57.127Z,52.38
2019-01-05T12:43:39.090Z,52.56
2019-01-05T12:45:18.089Z,52.70
2019-01-05T12:46:47.313Z,52.63
2019-01-05T12:48:19.995Z,52.72
2019-01-05T12:49:54.688Z,52.69
2019-01-05T12:51:08.729Z,52.66
2019-01-05T12:52:52.988Z,52.65
2019-01-05T12:54:36.518Z,52.54
2019-01-05T12:56:05.392Z,52.51
2019-01-05T12:57:22.141Z,52.30
2019-01-05T12:58:58.149Z,52.32
2019-01-05T13:00:20.801Z,52.49
2019-01-05T13:02:04.993Z,52.55
2019-01-05T13:03:18.985Z,52.71
2019-01-05T13:04:27.171Z,52.86
2019-01-05T13:05:50.007Z,52.87
2019-01-05T13:07:14.513Z,52.82
2019-01-05T13:08:37.236Z,52.65
2019-01-05T13:10:05.971Z,52.62
2019-01-05T13:11:44.291Z,52.73
2019-01-05T13:13:35.647Z,52.80
2019-01-05T13:15:16.781Z,52.86
2019-01-05T13:16:54.240Z,52.85
2019-01-05T13:18:18.130Z,52.90
2019-01-05T13:20:05.387Z,53.04
2019-01-05T13:21:49.632Z,53.19
2019-01-05T13:23:27.545Z,53.27
2019-01-05T13:25:06.962Z,53.40
2019-01-05T13:26:29.865Z,53.48
2019-01-05T13:28:10.858Z,53.58
2019-01-05T13:29:54.876Z,53.61
2019-01-05T13:31:35.717Z,53.61
2019-01-05T13:33:24.968Z,53.61
2019-01-05T13:34:50.972Z,53.62
2019-01-05T13:36:04.838Z,53.66
2019-01-05T13:37:18.775Z,53.74
2019-01-05T13:38:56.087Z,54.14
2019-01-05T13:40:39.512Z,54.16
2019-01-05T13:41:59.270Z,54.22
2019-01-05T13:43:26.851Z,54.27
2019-01-05T13:45:25.932Z,54.35
2019-01-05T13:46:42.705Z,54.41
2019-01-05T13:48:21.962Z,54.47
2019-01-05T13:49:54.079Z,54.44
2019-01-05T13:51:50.024Z,54.39
2019-01-05T13:53:09.751Z,54.44
2019-01-05T13:54:17.313Z,54.31
2019-01-05T13:55:25.687Z,54.17
2019-01-05T13:56:47.533Z,54.11
2019-01-05T13:58:01.446Z,54.06
2019-01-05T13:59:06.988Z,54.07
2019-01-05T14:00:13.222Z,54.06
2019-01-05T14:01:24.151Z,54.04
2019-01-05T14:02:31.844Z,54.03
2019-01-05T14:03:54.240Z,54.00
2019-01-05T14:04:59.595Z,54.07
2019-01-05T14:06:11.050Z,54.04
2019-01-05T14:07:19.169Z,54.13
2019-01-05T14:08:27.165Z,54.16
2019-01-05T14:09:32.350Z,54.21
2019-01-05T14:10:47.129Z,54.18
2019-01-05T14:11:52.350Z,54.18
2019-01-05T14:13:13.952Z,54.19
2019-01-05T14:14:35.137Z,54.19
2019-01-05T14:15:40.326Z,54.09
2019-01-05T14:16:48.516Z,53.98
2019-01-05T14:17:56.245Z,54.00
2019-01-05T14:19:13.315Z,53.97
2019-01-05T14:20:36.631Z,53.95
2019-01-05T14:21:58.587Z,53.99
2019-01-05T14:23:03.728Z,54.01
2019-01-05T14:24:25.276Z,54.16
2019-01-05T14:25:46.686Z,54.22
2019-01-05T14:26:51.822Z,54.56
2019-01-05T14:28:13.005Z,54.27
2019-01-05T14:29:18.169Z,54.28
2019-01-05T14:30:26.145Z,53.82
2019-01-05T14:31:37.508Z,53.79
2019-01-05T14:32:45.348Z,53.59
2019-01-05T14:33:56.616Z,53.74
2019-01-05T14:35:04.737Z,53.32
2019-01-05T14:36:19.111Z,53.54
2019-01-05T14:37:39.317Z,53.33
2019-01-05T14:38:44.636Z,53.57
2019-01-05T14:39:49.941Z,53.25
2019-01-05T14:41:01.139Z,53.35
2019-01-05T14:42:22.503Z,53.57
2019-01-05T14:43:43.935Z,53.66
2019-01-05T14:45:05.174Z,53.53
2019-01-05T14:46:16.218Z,53.66
2019-01-05T14:47:37.667Z,53.79
2019-01-05T14:48:58.783Z,53.73
2019-01-05T14:50:03.997Z,53.76
2019-01-05T14:51:09.443Z,53.77
2019-01-05T14:52:14.603Z,53.83
2019-01-05T14:53:22.869Z,53.69
2019-01-05T14:54:28.086Z,53.47
2019-01-05T14:55:38.168Z,53.19
2019-01-05T14:56:59.710Z,52.56
2019-01-05T14:58:21.152Z,52.14
2019-01-05T14:59:42.742Z,51.90
2019-01-05T15:00:50.831Z,52.11
2019-01-05T15:01:58.951Z,52.60
2019-01-05T15:03:04.242Z,52.66
2019-01-05T15:04:27.009Z,52.75
2019-01-05T15:05:32.307Z,52.85
2019-01-05T15:06:37.487Z,52.92
2019-01-05T15:07:51.334Z,53.06
2019-01-05T15:08:58.461Z,53.20
2019-01-05T15:10:06.467Z,53.36
2019-01-05T15:11:26.588Z,53.46
2019-01-05T15:12:34.693Z,53.55
2019-01-05T15:13:39.844Z,53.60
2019-01-05T15:15:01.016Z,53.62
2019-01-05T15:16:15.045Z,53.56
2019-01-05T15:17:38.461Z,53.65
2019-01-05T15:18:54.332Z,53.42
2019-01-05T15:20:02.390Z,53.26
2019-01-05T15:21:07.629Z,53.18
2019-01-05T15:22:15.487Z,53.08
2019-01-05T15:23:23.278Z,53.09
2019-01-05T15:24:34.411Z,53.38
2019-01-05T15:25:45.374Z,53.39
2019-01-05T15:27:02.556Z,53.44
2019-01-05T15:28:22.880Z,53.39
2019-01-05T15:29:27.996Z,53.25
2019-01-05T15:30:40.899Z,53.17
2019-01-05T15:32:01.506Z,53.06
2019-01-05T15:33:23.252Z,53.25
2019-01-05T15:34:37.609Z,53.82
2019-01-05T15:35:42.893Z,53.90
2019-01-05T15:36:48.197Z,53.86
2019-01-05T15:37:53.928Z,54.02
2019-01-05T15:39:10.915Z,53.96
2019-01-05T15:40:25.100Z,53.64
2019-01-05T15:41:36.456Z,53.43
2019-01-05T15:42:44.441Z,53.31
2019-01-05T15:43:58.918Z,53.31
2019-01-05T15:45:09.545Z,53.23
2019-01-05T15:46:23.272Z,53.20
2019-01-05T15:47:30.981Z,53.15
2019-01-05T15:48:51.772Z,52.89
2019-01-05T15:49:59.778Z,52.80
2019-01-05T15:51:20.977Z,53.16
2019-01-05T15:52:26.279Z,53.11
2019-01-05T15:53:34.183Z,53.22
2019-01-05T15:54:55.370Z,53.13
2019-01-05T15:56:18.515Z,53.34
2019-01-05T15:57:26.575Z,53.40
2019-01-05T15:58:40.688Z,53.33
2019-01-05T15:59:45.920Z,53.33
2019-01-05T16:01:07.120Z,53.33
2019-01-05T16:02:28.251Z,53.42
2019-01-05T16:03:45.082Z,53.34
2019-01-05T16:04:59.281Z,52.93
2019-01-05T16:06:20.743Z,53.13
2019-01-05T16:07:28.399Z,53.22
2019-01-05T16:08:42.682Z,53.78
2019-01-05T16:09:50.678Z,53.86
2019-01-05T16:11:02.381Z,53.63
2019-01-05T16:12:22.552Z,53.72
2019-01-05T16:13:44.042Z,53.83
2019-01-05T16:15:01.152Z,54.05
2019-01-05T16:16:06.456Z,54.10
2019-01-05T16:17:28.062Z,54.15
2019-01-05T16:18:42.088Z,54.16
2019-01-05T16:19:50.265Z,53.98
2019-01-05T16:20:56.703Z,54.01
2019-01-05T16:22:17.299Z,54.01
2019-01-05T16:23:38.736Z,54.01
2019-01-05T16:24:46.612Z,53.99
2019-01-05T16:25:51.767Z,54.00
2019-01-05T16:27:00.691Z,54.13
2019-01-05T16:28:08.622Z,54.09
2019-01-05T16:29:29.920Z,54.08
2019-01-05T16:30:51.202Z,54.13
2019-01-05T16:32:12.045Z,54.19
2019-01-05T16:33:19.613Z,54.37
2019-01-05T16:34:27.441Z,54.45
2019-01-05T16:35:35.799Z,54.42
2019-01-05T16:36:53.114Z,54.49
2019-01-05T16:38:07.518Z,54.34
2019-01-05T16:39:12.774Z,54.27
2019-01-05T16:40:17.921Z,54.34
2019-01-05T16:41:38.417Z,54.43
2019-01-05T16:42:49.753Z,54.55
2019-01-05T16:43:55.050Z,54.61
2019-01-05T16:45:00.474Z,54.78
2019-01-05T16:46:05.862Z,54.59
2019-01-05T16:47:17.078Z,54.40
2019-01-05T16:48:37.280Z,54.53
2019-01-05T16:49:58.334Z,54.60
2019-01-05T16:51:19.689Z,54.73
2019-01-05T16:52:40.536Z,54.86
2019-01-05T16:53:45.816Z,54.91
2019-01-05T16:55:07.285Z,54.95
2019-01-05T16:56:28.610Z,54.96
2019-01-05T16:57:42.509Z,55.00
2019-01-05T16:59:03.519Z,55.00
2019-01-05T17:00:16.267Z,55.16
2019-01-05T17:01:27.481Z,55.16
2019-01-05T17:02:36.063Z,55.12
2019-01-05T17:03:57.153Z,55.03
2019-01-05T17:05:11.267Z,55.03
2019-01-05T17:06:34.604Z,55.19
2019-01-05T17:07:54.644Z,55.14
2019-01-05T17:08:59.944Z,55.06
2019-01-05T17:10:17.869Z,55.00
2019-01-05T17:11:23.041Z,55.04
2019-01-05T17:12:46.523Z,55.09
2019-01-05T17:13:51.628Z,55.07
2019-01-05T17:15:11.914Z,55.02
2019-01-05T17:16:17.659Z,54.99
2019-01-05T17:17:25.913Z,55.01
2019-01-05T17:18:31.070Z,55.01
2019-01-05T17:19:39.306Z,55.02
2019-01-05T17:20:59.403Z,55.06
2019-01-05T17:22:20.890Z,55.13
2019-01-05T17:23:32.130Z,55.13
2019-01-05T17:24:43.599Z,55.21
2019-01-05T17:25:51.653Z,55.17
2019-01-05T17:27:12.075Z,55.18
2019-01-05T17:28:32.365Z,55.19
2019-01-05T17:29:53.878Z,55.14
2019-01-05T17:31:02.400Z,55.09
2019-01-05T17:32:23.614Z,55.11
2019-01-05T17:33:43.901Z,55.15
2019-01-05T17:35:05.094Z,55.14
2019-01-05T17:36:13.029Z,55.17
2019-01-05T17:37:30.181Z,55.18
2019-01-05T17:38:38.562Z,55.17
2019-01-05T17:39:59.833Z,55.19
2019-01-05T17:41:04.960Z,55.17
2019-01-05T17:42:18.684Z,55.22
2019-01-05T17:43:30.680Z,55.25
2019-01-05T17:44:44.731Z,55.25
2019-01-05T17:45:49.969Z,55.28
2019-01-05T17:47:11.393Z,55.26
2019-01-05T17:48:19.123Z,55.19
2019-01-05T17:49:41.864Z,55.15
2019-01-05T17:51:02.956Z,55.19
2019-01-05T17:52:10.923Z,55.21
2019-01-05T17:53:28.116Z,55.20
2019-01-05T17:54:36.038Z,55.23
2019-01-05T17:55:46.798Z,55.23
2019-01-05T17:57:00.753Z,55.24
2019-01-05T17:58:05.867Z,55.20
2019-01-05T17:59:11.133Z,55.21
2019-01-05T18:00:28.484Z,55.24
2019-01-05T18:01:33.690Z,55.29
2019-01-05T18:02:38.943Z,55.29
2019-01-05T18:03:55.993Z,55.27
2019-01-05T18:05:01.294Z,55.32
2019-01-05T18:06:24.833Z,55.33
2019-01-05T18:07:45.934Z,55.35
2019-01-05T18:08:51.144Z,55.38
2019-01-05T18:09:59.404Z,55.37
2019-01-05T18:11:20.578Z,55.35
2019-01-05T18:12:31.840Z,55.44
2019-01-05T18:13:45.600Z,55.40
2019-01-05T18:14:50.783Z,55.32